Urb Las 3t, Puerto Rico
Current Conditions -  °F | °C
As of 1:50 PM on Monday 24 Nov 2014 (Local Time) from TJBQ Reporting Station
Scattered Clouds Scattered Clouds  
Wind Chill: 84°   Ceiling: Unl
Heat Index: 91°   Visibility: 10mi
Dew Point: 73°   Wind: 24mph
Humidity: 70%   Direction: 90°E
Pressure: 30.01"   Gusts: 30mph
Location:  18.4951°N, 67.0273°W
Report Text: TJBQ 241750Z 09021G26KT 10SM SCT024 29/23 A3001 RMK RWY08 ATIS H
Loading
Personal Weather Stations






























Interactive Weather Map New forecast layout! Learn more

10-Day Weather Forecast

Advertisements
Track Severe Weather on mobile